Time;durP1;ratioP1;P1;durP2;ratioP2;P2;SDS_P1;SDS_P2;PMS_P1;PMS_P2;Temp;Humidity;BMP_temperature;BMP_pressure;BME280_temperature;BME280_humidity;BME280_pressure;Samples;Min_cycle;Max_cycle;Signal;HPM_P1;HPM_P2
2022/01/04 00:01:37;;;;;;;13.43;3.70;;;9.60;99.90;;;;;;5032852;28;20201;-75
2022/01/04 00:04:04;;;;;;;11.57;3.30;;;9.60;99.90;;;;;;5039818;28;20601;-75
2022/01/04 00:06:31;;;;;;;12.20;3.43;;;9.60;99.90;;;;;;5044890;28;20255;-75
2022/01/04 00:09:01;;;;;;;9.60;2.53;;;9.60;99.90;;;;;;5035414;28;20216;-75
2022/01/04 00:11:44;;;;;;;13.33;3.73;;;9.60;99.90;;;;;;5031884;28;20701;-75
2022/01/04 00:14:11;;;;;;;13.47;3.87;;;9.50;99.90;;;;;;5038059;28;20297;-74
2022/01/04 00:16:39;;;;;;;13.87;3.73;;;9.50;99.90;;;;;;5042501;28;20226;-74
2022/01/04 00:19:06;;;;;;;11.97;3.47;;;9.50;99.90;;;;;;5040162;28;20633;-75
2022/01/04 00:21:33;;;;;;;11.83;3.47;;;9.50;99.90;;;;;;5016831;28;20235;-75
2022/01/04 00:24:00;;;;;;;11.50;3.43;;;9.40;99.90;;;;;;5035400;28;20209;-75
2022/01/04 00:26:28;;;;;;;13.90;3.67;;;9.40;99.90;;;;;;5031089;28;20239;-75
2022/01/04 00:28:55;;;;;;;12.53;3.70;;;9.40;99.90;;;;;;5024147;28;20595;-75
2022/01/04 00:31:23;;;;;;;12.83;3.53;;;9.40;99.90;;;;;;5033297;28;20224;-75
2022/01/04 00:33:50;;;;;;;13.47;3.37;;;9.30;99.90;;;;;;5033771;28;20211;-75
2022/01/04 00:36:17;;;;;;;11.40;3.37;;;9.30;99.90;;;;;;5028769;28;20569;-76
2022/01/04 00:38:44;;;;;;;13.83;3.90;;;9.20;99.90;;;;;;5036738;28;20209;-75
2022/01/04 00:41:11;;;;;;;11.80;3.23;;;9.20;99.90;;;;;;5033629;28;20210;-76
2022/01/04 00:43:39;;;;;;;11.70;3.57;;;9.20;99.90;;;;;;5036915;28;20216;-74
2022/01/04 00:46:07;;;;;;;13.43;4.00;;;9.10;99.90;;;;;;5025568;28;20227;-74
2022/01/04 00:51:18;;;;;;;16.70;3.80;;;9.10;99.90;;;;;;5023455;28;20280;-74
2022/01/04 00:53:45;;;;;;;12.23;3.60;;;9.10;99.90;;;;;;5029702;28;20212;-74
2022/01/04 00:56:12;;;;;;;14.63;4.03;;;9.10;99.90;;;;;;5034363;28;20235;-74
2022/01/04 00:58:40;;;;;;;14.53;4.20;;;9.10;99.90;;;;;;5040037;28;20217;-74
2022/01/04 01:01:07;;;;;;;11.40;3.80;;;9.10;99.90;;;;;;5039547;28;20551;-74
2022/01/04 01:03:34;;;;;;;14.13;4.17;;;9.10;99.90;;;;;;5032873;28;20227;-74
2022/01/04 01:06:04;;;;;;;12.47;3.80;;;9.00;99.90;;;;;;5027515;28;20208;-74
2022/01/04 01:08:31;;;;;;;15.00;3.83;;;9.00;99.90;;;;;;5031737;28;20257;-74
2022/01/04 01:10:58;;;;;;;11.90;3.53;;;9.00;99.90;;;;;;5028309;28;20455;-74
2022/01/04 01:13:25;;;;;;;12.30;3.67;;;9.00;99.90;;;;;;5025722;28;20239;-74
2022/01/04 01:15:53;;;;;;;12.30;3.57;;;9.00;99.90;;;;;;5025616;28;20227;-74
2022/01/04 01:18:20;;;;;;;13.87;4.10;;;8.90;99.90;;;;;;5034395;28;20240;-75
2022/01/04 01:20:49;;;;;;;12.47;3.73;;;8.90;99.90;;;;;;5037821;28;20205;-74
2022/01/04 01:23:16;;;;;;;11.87;3.80;;;8.90;99.90;;;;;;5036076;28;20207;-74
2022/01/04 01:25:43;;;;;;;15.63;3.97;;;8.60;99.90;;;;;;5026238;28;20207;-74
2022/01/04 01:28:11;;;;;;;13.67;3.80;;;8.80;99.90;;;;;;5033512;28;20234;-75
2022/01/04 01:30:40;;;;;;;12.80;3.57;;;8.80;99.90;;;;;;5019640;28;20290;-74
2022/01/04 01:33:09;;;;;;;9.17;2.87;;;8.80;99.90;;;;;;5029602;28;20231;-74
2022/01/04 01:35:37;;;;;;;13.13;3.97;;;8.80;99.90;;;;;;5024983;28;20217;-74
2022/01/04 01:38:04;;;;;;;12.17;3.53;;;8.80;99.90;;;;;;5023831;28;20231;-74
2022/01/04 01:40:31;;;;;;;14.37;4.03;;;8.70;99.90;;;;;;5025654;28;20524;-74
2022/01/04 01:42:59;;;;;;;12.43;3.53;;;8.70;99.90;;;;;;5032119;28;20212;-74
2022/01/04 01:45:26;;;;;;;11.50;3.50;;;8.70;99.90;;;;;;5032322;28;20244;-74
2022/01/04 01:47:53;;;;;;;12.20;3.70;;;8.70;99.90;;;;;;5027364;28;20263;-74
2022/01/04 01:50:21;;;;;;;13.47;3.80;;;8.70;99.90;;;;;;5033987;28;20392;-75
2022/01/04 01:52:51;;;;;;;11.93;3.63;;;8.70;99.90;;;;;;5038388;28;20236;-74
2022/01/04 01:55:19;;;;;;;12.87;3.73;;;8.70;99.90;;;;;;5021766;28;20212;-75
2022/01/04 01:57:47;;;;;;;12.80;3.63;;;8.70;99.90;;;;;;5035413;28;20236;-75
2022/01/04 02:00:16;;;;;;;12.27;3.53;;;8.60;99.90;;;;;;5033204;28;20233;-75
2022/01/04 02:02:43;;;;;;;12.13;3.50;;;8.70;99.90;;;;;;5013312;28;20666;-75
2022/01/04 02:05:10;;;;;;;10.73;3.40;;;8.60;99.90;;;;;;5027799;28;20214;-75
2022/01/04 02:07:42;;;;;;;12.40;3.83;;;8.60;99.90;;;;;;5034209;28;20346;-75
2022/01/04 02:10:10;;;;;;;13.07;4.00;;;8.60;99.90;;;;;;5033055;28;20250;-75
2022/01/04 02:12:39;;;;;;;12.97;3.80;;;8.60;99.90;;;;;;5027036;28;20255;-75
2022/01/04 02:15:08;;;;;;;10.63;3.53;;;8.60;99.90;;;;;;5030002;28;20655;-74
2022/01/04 02:17:35;;;;;;;14.13;4.13;;;8.60;99.90;;;;;;5029166;28;20239;-74
2022/01/04 02:20:06;;;;;;;11.10;3.50;;;8.60;99.90;;;;;;5027408;28;20208;-74
2022/01/04 02:22:33;;;;;;;16.30;4.13;;;8.60;99.90;;;;;;5031246;28;20206;-75
2022/01/04 02:25:01;;;;;;;13.50;4.20;;;8.60;99.90;;;;;;5027834;28;20671;-74
2022/01/04 02:27:28;;;;;;;12.13;3.87;;;8.70;99.90;;;;;;5029660;28;20240;-74
2022/01/04 02:29:55;;;;;;;11.40;3.60;;;8.70;99.90;;;;;;5026643;28;20236;-74
2022/01/04 02:32:22;;;;;;;11.50;3.60;;;8.60;99.90;;;;;;5035829;28;20631;-73
2022/01/04 02:34:50;;;;;;;15.63;4.33;;;8.70;99.90;;;;;;5030746;28;20287;-73
2022/01/04 02:37:22;;;;;;;13.50;3.67;;;8.70;99.90;;;;;;5027166;28;20233;-73
2022/01/04 02:39:49;;;;;;;13.67;4.10;;;8.70;99.90;;;;;;5034894;28;20223;-73
2022/01/04 02:42:16;;;;;;;14.43;4.07;;;8.70;99.90;;;;;;5035418;28;20217;-73
2022/01/04 02:44:44;;;;;;;13.93;4.20;;;8.70;99.90;;;;;;5026294;28;20222;-73
2022/01/04 02:47:12;;;;;;;11.00;3.50;;;8.70;99.90;;;;;;5026043;28;20236;-73
2022/01/04 02:49:39;;;;;;;14.67;4.00;;;8.60;99.90;;;;;;5026291;28;20209;-73
2022/01/04 02:52:07;;;;;;;12.93;3.97;;;8.60;99.90;;;;;;5037474;28;20312;-73
2022/01/04 02:54:36;;;;;;;18.20;5.10;;;8.60;99.90;;;;;;5036237;28;20577;-73
2022/01/04 02:57:03;;;;;;;12.17;3.90;;;8.60;99.90;;;;;;5027968;28;20491;-73
2022/01/04 02:59:30;;;;;;;13.27;4.03;;;8.60;99.90;;;;;;5025200;28;20208;-73
2022/01/04 03:01:57;;;;;;;18.67;5.60;;;8.60;99.90;;;;;;5031547;28;20296;-73
2022/01/04 03:04:23;;;;;;;13.83;4.60;;;8.60;99.90;;;;;;5029538;28;20220;-73
2022/01/04 03:06:50;;;;;;;14.97;4.40;;;8.60;99.90;;;;;;5024601;28;20233;-73
2022/01/04 03:09:17;;;;;;;11.23;3.50;;;8.50;99.90;;;;;;5027730;28;20562;-73
2022/01/04 03:19:02;;;;;;;11.57;3.70;;;8.30;99.90;;;;;;5433505;22;20236;-72
2022/01/04 03:21:30;;;;;;;12.97;4.00;;;8.30;99.90;;;;;;5003898;28;20289;-72
2022/01/04 03:23:57;;;;;;;11.40;3.70;;;8.30;99.90;;;;;;5011380;28;20614;-72
2022/01/04 03:26:24;;;;;;;14.63;4.63;;;9.00;99.90;;;;;;5015650;28;20261;-72
2022/01/04 03:28:51;;;;;;;12.10;4.00;;;8.20;99.90;;;;;;5003417;28;20284;-72
2022/01/04 03:31:18;;;;;;;16.07;4.77;;;8.30;99.90;;;;;;4995410;28;20242;-74
2022/01/04 03:33:46;;;;;;;13.37;4.30;;;8.20;99.90;;;;;;5021649;28;20249;-74
2022/01/04 03:36:14;;;;;;;14.20;4.50;;;8.20;99.90;;;;;;5003508;28;20600;-74
2022/01/04 03:38:41;;;;;;;17.93;5.00;;;8.20;99.90;;;;;;5011891;28;20270;-74
2022/01/04 03:41:08;;;;;;;13.97;4.77;;;8.20;99.90;;;;;;5017149;28;20292;-74
2022/01/04 03:43:37;;;;;;;17.07;5.40;;;8.30;99.90;;;;;;5012284;28;20199;-74
2022/01/04 03:46:04;;;;;;;16.13;5.00;;;8.30;99.90;;;;;;5010620;28;20285;-74
2022/01/04 03:48:30;;;;;;;15.03;4.70;;;8.30;99.90;;;;;;4997842;28;20222;-74
2022/01/04 03:50:59;;;;;;;15.07;4.77;;;8.30;99.90;;;;;;4994736;28;20210;-74
2022/01/04 03:53:25;;;;;;;10.67;3.97;;;8.40;99.90;;;;;;5006364;28;20596;-74
2022/01/04 03:55:52;;;;;;;14.53;4.87;;;8.30;99.90;;;;;;5018634;28;20210;-74
2022/01/04 03:58:19;;;;;;;14.43;4.70;;;8.40;99.90;;;;;;5014590;28;20233;-74
2022/01/04 04:00:46;;;;;;;14.17;4.83;;;8.40;99.90;;;;;;5006616;28;20218;-74
2022/01/04 04:03:13;;;;;;;12.47;4.27;;;8.40;99.90;;;;;;5018054;28;20218;-74
2022/01/04 04:05:40;;;;;;;14.07;5.03;;;8.40;99.90;;;;;;4982630;28;20214;-74
2022/01/04 04:08:08;;;;;;;16.17;5.07;;;8.50;99.90;;;;;;5011109;28;20230;-74
2022/01/04 04:10:35;;;;;;;15.43;5.10;;;8.50;99.90;;;;;;5000997;28;20232;-74
2022/01/04 04:13:02;;;;;;;14.87;5.27;;;8.50;99.90;;;;;;5011891;28;20298;-75
2022/01/04 04:15:29;;;;;;;13.03;4.87;;;8.50;99.90;;;;;;5015727;28;20288;-74
2022/01/04 04:17:56;;;;;;;18.13;5.10;;;8.50;99.90;;;;;;4997551;28;20227;-74
2022/01/04 04:20:23;;;;;;;14.00;4.90;;;8.50;99.90;;;;;;5004502;28;20211;-74
2022/01/04 04:22:50;;;;;;;11.37;4.47;;;8.50;99.90;;;;;;5011416;28;20699;-74
2022/01/04 04:25:19;;;;;;;12.60;4.77;;;8.50;99.90;;;;;;5015357;28;20213;-74
2022/01/04 04:27:46;;;;;;;14.27;4.83;;;8.50;99.90;;;;;;4996425;28;20522;-74
2022/01/04 04:30:13;;;;;;;17.87;5.13;;;8.50;99.90;;;;;;5000043;28;20226;-74
2022/01/04 04:32:40;;;;;;;16.83;5.17;;;8.60;99.90;;;;;;5013612;28;20268;-74
2022/01/04 04:35:07;;;;;;;17.43;5.63;;;8.60;99.90;;;;;;5020248;28;20720;-74
2022/01/04 04:37:34;;;;;;;16.07;5.33;;;8.60;99.90;;;;;;5003214;28;20607;-74
2022/01/04 04:40:01;;;;;;;15.80;5.43;;;8.60;99.90;;;;;;5004202;28;20706;-74
2022/01/04 04:42:29;;;;;;;15.80;5.93;;;8.60;99.90;;;;;;5007471;28;20317;-74
2022/01/04 04:44:56;;;;;;;19.80;6.17;;;8.60;99.90;;;;;;5005031;28;20231;-74
2022/01/04 04:47:22;;;;;;;12.27;4.77;;;8.60;99.90;;;;;;4992828;28;20733;-74
2022/01/04 04:49:49;;;;;;;15.93;5.67;;;8.60;99.90;;;;;;5009340;28;20743;-74
2022/01/04 04:52:16;;;;;;;14.80;5.07;;;8.60;99.90;;;;;;5001287;28;20213;-74
2022/01/04 04:54:43;;;;;;;15.30;5.50;;;8.60;99.90;;;;;;5020935;28;20583;-74
2022/01/04 04:57:10;;;;;;;17.70;5.40;;;8.60;99.90;;;;;;5000265;28;20233;-74
2022/01/04 04:59:38;;;;;;;17.50;5.77;;;8.60;99.90;;;;;;4998324;28;21083;-74
2022/01/04 05:02:07;;;;;;;17.60;5.60;;;8.60;99.90;;;;;;5017294;28;20224;-74
2022/01/04 05:04:34;;;;;;;14.57;5.30;;;8.60;99.90;;;;;;5013785;28;21682;-74
2022/01/04 05:07:01;;;;;;;16.03;5.73;;;8.60;99.90;;;;;;5002567;28;20615;-74
2022/01/04 05:09:28;;;;;;;16.27;5.70;;;8.60;99.90;;;;;;5009370;28;20479;-74
2022/01/04 05:11:55;;;;;;;15.20;5.60;;;8.60;99.90;;;;;;5006151;28;20618;-74
2022/01/04 05:14:22;;;;;;;17.70;6.07;;;8.60;99.90;;;;;;4997975;28;20314;-74
2022/01/04 05:16:50;;;;;;;16.53;5.97;;;8.60;99.90;;;;;;5009148;28;20218;-74
2022/01/04 05:19:17;;;;;;;14.87;5.70;;;8.60;99.90;;;;;;5015289;28;20218;-74
2022/01/04 05:21:44;;;;;;;19.37;6.37;;;8.60;99.90;;;;;;5005191;28;20244;-74
2022/01/04 05:24:11;;;;;;;15.27;5.67;;;8.60;99.90;;;;;;5006262;28;20683;-74
2022/01/04 05:26:38;;;;;;;17.03;5.97;;;8.60;99.90;;;;;;5002880;28;20251;-74
2022/01/04 05:29:05;;;;;;;19.17;6.33;;;8.60;99.90;;;;;;5007479;28;20212;-74
2022/01/04 05:31:32;;;;;;;15.03;6.00;;;8.60;99.90;;;;;;5007706;28;20213;-74
2022/01/04 05:34:00;;;;;;;18.07;6.10;;;8.60;99.90;;;;;;5013756;28;20225;-74
2022/01/04 05:36:27;;;;;;;17.23;6.13;;;8.60;99.90;;;;;;5006778;28;20233;-74
2022/01/04 05:38:54;;;;;;;20.40;6.33;;;8.50;99.90;;;;;;5010142;28;20213;-74
2022/01/04 05:41:21;;;;;;;18.17;6.10;;;8.60;99.90;;;;;;5014754;28;20222;-74
2022/01/04 05:43:48;;;;;;;15.40;5.43;;;8.60;99.90;;;;;;4987884;28;20835;-74
2022/01/04 05:46:15;;;;;;;18.10;6.60;;;8.60;99.90;;;;;;5011374;28;20208;-74
2022/01/04 05:48:42;;;;;;;19.53;6.73;;;8.60;99.90;;;;;;5004004;28;20223;-74
2022/01/04 05:51:11;;;;;;;18.60;6.57;;;8.60;99.90;;;;;;5007732;28;20214;-74
2022/01/04 05:53:37;;;;;;;20.53;6.90;;;8.60;99.90;;;;;;5015400;28;20710;-73
2022/01/04 05:56:05;;;;;;;20.20;6.97;;;8.60;99.90;;;;;;5017257;28;20240;-73
2022/01/04 05:58:32;;;;;;;16.47;6.47;;;8.60;99.90;;;;;;4999554;28;20223;-72
2022/01/04 06:01:00;;;;;;;16.67;6.37;;;8.60;99.90;;;;;;5001180;28;20218;-76
2022/01/04 06:03:28;;;;;;;19.33;6.93;;;8.60;99.90;;;;;;5004333;28;20276;-74
2022/01/04 06:05:55;;;;;;;18.97;7.07;;;8.60;99.90;;;;;;5007857;28;20224;-74
2022/01/04 06:08:23;;;;;;;16.73;6.73;;;8.60;99.90;;;;;;5018554;28;20313;-73
2022/01/04 06:10:52;;;;;;;18.23;6.50;;;8.60;99.90;;;;;;5009930;28;20284;-73
2022/01/04 06:16:04;;;;;;;18.50;7.37;;;8.60;99.90;;;;;;5007919;28;20417;-74
2022/01/04 06:18:30;;;;;;;20.93;6.87;;;8.50;99.90;;;;;;5024498;28;20322;-74
2022/01/04 06:20:58;;;;;;;20.23;7.77;;;8.50;99.90;;;;;;5013716;28;20211;-74
2022/01/04 06:23:26;;;;;;;20.63;7.70;;;8.50;99.90;;;;;;5008219;28;20223;-74
2022/01/04 06:25:53;;;;;;;21.10;7.60;;;8.50;99.90;;;;;;5008927;28;20212;-73
2022/01/04 06:28:21;;;;;;;19.03;7.17;;;8.60;99.90;;;;;;4984521;28;20649;-74
2022/01/04 06:30:51;;;;;;;20.30;8.17;;;8.60;99.90;;;;;;5005141;28;20220;-74
2022/01/04 06:33:19;;;;;;;20.83;7.10;;;8.50;99.90;;;;;;5005431;28;20234;-74
2022/01/04 06:35:46;;;;;;;25.70;8.87;;;8.50;99.90;;;;;;4988289;28;20225;-74
2022/01/04 06:38:13;;;;;;;18.03;7.70;;;8.60;99.90;;;;;;5020978;28;20956;-74
2022/01/04 06:40:41;;;;;;;20.67;7.93;;;8.60;99.90;;;;;;5022261;28;20228;-74
2022/01/04 06:43:08;;;;;;;17.87;8.00;;;8.60;99.90;;;;;;5010987;28;20218;-74
2022/01/04 06:45:35;;;;;;;22.63;8.57;;;8.60;99.90;;;;;;5010566;28;20802;-73
2022/01/04 06:48:02;;;;;;;17.50;7.43;;;8.60;99.90;;;;;;5013163;28;20299;-74
2022/01/04 06:50:28;;;;;;;21.60;8.73;;;8.70;99.90;;;;;;4999285;28;20268;-72
2022/01/04 06:52:55;;;;;;;22.63;8.73;;;8.70;99.90;;;;;;5004144;28;20258;-72
2022/01/04 06:55:22;;;;;;;21.70;9.00;;;8.60;99.90;;;;;;5006888;28;20215;-72
2022/01/04 06:57:50;;;;;;;20.50;8.33;;;8.60;99.90;;;;;;5002064;28;20240;-72
2022/01/04 07:00:18;;;;;;;24.07;9.03;;;8.60;99.90;;;;;;5021807;28;20213;-72
2022/01/04 07:02:45;;;;;;;17.97;7.60;;;8.30;99.90;;;;;;5005416;28;20271;-72
2022/01/04 07:05:13;;;;;;;24.93;9.80;;;8.60;99.90;;;;;;4998250;28;20289;-73
2022/01/04 07:07:40;;;;;;;20.67;9.33;;;8.60;99.90;;;;;;5014663;28;20309;-72
2022/01/04 07:10:07;;;;;;;21.90;8.60;;;8.60;99.90;;;;;;5020871;28;20220;-72
2022/01/04 07:12:34;;;;;;;24.23;9.70;;;8.70;99.90;;;;;;5007865;28;20725;-72
2022/01/04 07:15:02;;;;;;;21.30;9.13;;;8.70;99.90;;;;;;5001421;28;20230;-72
2022/01/04 07:17:29;;;;;;;25.03;9.80;;;8.70;99.90;;;;;;4995433;28;20610;-72
2022/01/04 07:19:56;;;;;;;22.47;9.40;;;8.70;99.90;;;;;;5003001;28;20696;-72
2022/01/04 07:22:23;;;;;;;25.40;9.63;;;8.70;99.90;;;;;;5003074;28;20216;-73
2022/01/04 07:24:50;;;;;;;25.83;9.67;;;8.70;99.90;;;;;;5006081;28;20213;-73
2022/01/04 07:27:17;;;;;;;25.03;10.47;;;8.70;99.90;;;;;;4999447;28;20548;-72
2022/01/04 07:29:43;;;;;;;28.57;9.90;;;8.60;99.90;;;;;;5005502;28;20214;-73
2022/01/04 07:32:12;;;;;;;24.70;9.87;;;8.60;99.90;;;;;;4999017;28;20211;-73
2022/01/04 07:34:38;;;;;;;26.53;10.00;;;8.60;99.90;;;;;;5006247;28;20237;-73
2022/01/04 07:37:05;;;;;;;27.83;10.43;;;8.50;99.90;;;;;;5008197;28;20280;-73
2022/01/04 07:39:32;;;;;;;25.03;10.47;;;8.50;99.90;;;;;;5007661;28;20211;-73
2022/01/04 07:42:00;;;;;;;24.40;10.13;;;8.50;99.90;;;;;;5002791;28;20242;-73
2022/01/04 07:44:27;;;;;;;23.97;10.30;;;8.60;99.90;;;;;;5002458;28;20788;-74
2022/01/04 07:46:54;;;;;;;22.40;9.53;;;8.50;99.90;;;;;;5008291;28;20254;-73
2022/01/04 07:49:22;;;;;;;25.17;9.37;;;8.50;99.90;;;;;;4999768;28;20207;-73
2022/01/04 07:51:49;;;;;;;22.27;8.93;;;8.50;99.90;;;;;;5004147;28;20212;-73
2022/01/04 07:54:16;;;;;;;24.07;9.23;;;8.60;99.90;;;;;;4994394;28;20608;-73
2022/01/04 07:56:43;;;;;;;24.00;9.17;;;8.50;99.90;;;;;;5014517;28;20619;-73
2022/01/04 07:59:10;;;;;;;24.03;8.77;;;8.50;99.90;;;;;;5015682;28;20794;-73
2022/01/04 08:01:37;;;;;;;25.10;10.03;;;8.50;99.90;;;;;;5005176;28;20214;-73
2022/01/04 08:04:04;;;;;;;21.70;8.47;;;8.50;99.90;;;;;;5001427;28;20216;-73
2022/01/04 08:06:33;;;;;;;27.53;10.17;;;8.40;99.90;;;;;;5003233;28;20267;-73
2022/01/04 08:09:00;;;;;;;27.47;9.17;;;8.50;99.90;;;;;;5019272;28;20240;-73
2022/01/04 08:11:27;;;;;;;32.23;9.80;;;8.50;99.90;;;;;;5000560;28;20658;-73
2022/01/04 08:13:54;;;;;;;27.03;10.03;;;8.50;99.90;;;;;;4989327;28;20218;-75
2022/01/04 08:16:21;;;;;;;22.27;8.83;;;8.50;99.90;;;;;;5000212;28;20219;-73
2022/01/04 08:18:48;;;;;;;24.40;9.37;;;8.50;99.90;;;;;;4997770;28;20614;-73
2022/01/04 08:21:15;;;;;;;25.63;10.20;;;8.50;99.90;;;;;;4988844;28;20222;-73
2022/01/04 08:23:43;;;;;;;23.80;9.10;;;8.50;99.90;;;;;;5012807;28;20295;-74
2022/01/04 08:26:10;;;;;;;26.30;9.90;;;8.50;99.90;;;;;;5007939;28;20595;-73
2022/01/04 08:28:37;;;;;;;26.93;10.23;;;8.50;99.90;;;;;;5005280;28;20280;-74
2022/01/04 08:31:04;;;;;;;26.37;10.30;;;8.50;99.90;;;;;;5006044;28;20267;-74
2022/01/04 08:33:30;;;;;;;24.47;9.07;;;8.50;99.90;;;;;;4997261;28;20222;-73
2022/01/04 08:35:57;;;;;;;29.43;10.47;;;8.50;99.90;;;;;;4999513;28;20603;-74
2022/01/04 08:38:24;;;;;;;28.03;10.87;;;8.50;99.90;;;;;;5004839;28;20716;-74
2022/01/04 08:40:52;;;;;;;23.23;8.77;;;8.50;99.90;;;;;;5003192;28;20569;-74
2022/01/04 08:43:19;;;;;;;28.30;9.87;;;8.50;99.90;;;;;;4986666;28;20264;-73
2022/01/04 08:45:47;;;;;;;25.30;10.37;;;8.50;99.90;;;;;;5005329;28;20208;-74
2022/01/04 08:48:13;;;;;;;25.53;10.27;;;8.50;99.90;;;;;;5007753;28;20993;-73
2022/01/04 08:50:41;;;;;;;30.07;10.07;;;8.50;99.90;;;;;;5007408;28;20219;-74
2022/01/04 08:53:11;;;;;;;26.60;10.03;;;8.50;99.90;;;;;;5004348;28;20216;-73
2022/01/04 08:55:38;;;;;;;24.87;10.03;;;8.50;99.90;;;;;;5005845;28;20604;-72
2022/01/04 08:58:07;;;;;;;27.00;10.53;;;8.50;99.90;;;;;;4999187;28;20350;-74
2022/01/04 09:00:36;;;;;;;23.20;10.17;;;8.50;99.90;;;;;;5007637;28;20610;-75
2022/01/04 09:03:03;;;;;;;23.33;9.50;;;8.60;99.90;;;;;;5007203;28;20248;-72
2022/01/04 09:05:31;;;;;;;29.80;10.77;;;8.60;99.90;;;;;;4995309;28;20211;-73
2022/01/04 09:07:58;;;;;;;30.07;10.47;;;9.30;99.90;;;;;;4999726;28;20312;-73
2022/01/04 09:10:25;;;;;;;24.97;10.17;;;8.60;99.90;;;;;;4998221;28;20265;-73
2022/01/04 09:12:58;;;;;;;28.20;10.10;;;8.60;99.90;;;;;;5002620;28;20691;-72
2022/01/04 09:15:34;;;;;;;26.40;10.67;;;8.70;99.90;;;;;;5002984;28;20232;-73
2022/01/04 09:20:47;;;;;;;27.73;9.47;;;8.80;99.90;;;;;;5000435;28;20219;-72
2022/01/04 09:23:18;;;;;;;24.40;9.57;;;8.80;99.90;;;;;;4999426;28;20677;-72
2022/01/04 09:25:45;;;;;;;25.30;9.73;;;8.90;99.90;;;;;;4993709;28;20209;-72
2022/01/04 09:28:12;;;;;;;24.87;10.17;;;8.90;99.90;;;;;;5000509;28;20233;-72
2022/01/04 09:30:41;;;;;;;30.27;9.90;;;8.90;99.90;;;;;;4994455;28;20293;-72
2022/01/04 09:33:08;;;;;;;24.00;9.97;;;8.90;99.90;;;;;;5001275;28;20299;-72
2022/01/04 09:35:36;;;;;;;27.37;9.83;;;8.90;99.90;;;;;;4983764;28;20715;-72
2022/01/04 09:38:03;;;;;;;23.47;9.50;;;8.90;99.90;;;;;;5007317;28;20745;-72
2022/01/04 09:40:31;;;;;;;27.07;9.87;;;8.90;99.90;;;;;;5004926;28;20289;-72
2022/01/04 09:42:58;;;;;;;22.60;8.90;;;9.00;99.90;;;;;;4982810;28;20224;-73
2022/01/04 09:45:25;;;;;;;24.07;9.27;;;9.00;99.90;;;;;;5001492;28;20245;-72
2022/01/04 09:47:53;;;;;;;26.97;10.13;;;9.00;99.90;;;;;;5003336;28;20307;-72
2022/01/04 09:50:20;;;;;;;23.00;9.37;;;9.00;99.90;;;;;;5005746;28;20223;-73
2022/01/04 09:52:49;;;;;;;26.00;10.33;;;9.00;99.90;;;;;;4996405;28;20268;-73
2022/01/04 09:55:18;;;;;;;25.33;9.90;;;8.90;99.90;;;;;;5009737;28;20415;-72
2022/01/04 09:57:47;;;;;;;25.67;9.57;;;9.00;99.90;;;;;;4995479;28;20236;-72
2022/01/04 10:00:16;;;;;;;22.80;8.70;;;9.00;99.90;;;;;;4997648;28;20221;-72
2022/01/04 10:02:45;;;;;;;24.23;10.10;;;9.00;99.90;;;;;;5001315;28;20219;-72
2022/01/04 10:05:19;;;;;;;19.87;8.17;;;9.00;99.90;;;;;;5003779;28;20623;-72
2022/01/04 10:07:47;;;;;;;24.00;8.63;;;9.00;99.90;;;;;;5009095;28;20291;-72
2022/01/04 10:10:16;;;;;;;23.10;8.33;;;9.00;99.90;;;;;;5009955;28;20711;-73
2022/01/04 10:12:52;;;;;;;21.47;8.10;;;9.00;99.90;;;;;;4992089;28;20715;-72
2022/01/04 10:15:41;;;;;;;25.33;9.47;;;8.90;99.90;;;;;;5005776;28;20225;-74
2022/01/04 10:18:25;;;;;;;25.27;9.43;;;8.90;99.90;;;;;;5000533;28;20241;-74
2022/01/04 10:21:13;;;;;;;28.23;9.13;;;8.90;99.90;;;;;;5009535;28;20216;-75
2022/01/04 10:23:49;;;;;;;27.87;10.03;;;8.90;99.90;;;;;;5001605;28;20729;-74
2022/01/04 10:26:18;;;;;;;27.00;9.83;;;8.90;99.90;;;;;;5001654;28;20224;-74
2022/01/04 10:28:46;;;;;;;23.33;9.43;;;9.00;99.90;;;;;;5001614;28;20476;-75
2022/01/04 10:31:16;;;;;;;24.43;9.13;;;9.00;99.90;;;;;;4997375;28;20601;-75
2022/01/04 10:33:43;;;;;;;23.07;9.23;;;9.00;99.90;;;;;;4996454;28;20310;-75
2022/01/04 10:36:12;;;;;;;27.87;10.50;;;9.00;99.90;;;;;;5005268;28;20229;-75
2022/01/04 10:38:41;;;;;;;26.23;10.33;;;9.10;99.90;;;;;;5013355;28;20222;-75
2022/01/04 10:41:11;;;;;;;22.43;9.30;;;9.10;99.90;;;;;;5007183;28;20249;-75
2022/01/04 10:43:40;;;;;;;28.70;9.63;;;9.10;99.90;;;;;;5007052;28;20218;-75
2022/01/04 10:46:08;;;;;;;22.97;9.00;;;9.10;99.90;;;;;;5002118;28;20580;-75
2022/01/04 10:48:39;;;;;;;19.57;8.93;;;9.10;99.90;;;;;;5005094;28;20218;-75
2022/01/04 10:51:07;;;;;;;22.13;9.40;;;9.20;99.90;;;;;;5005849;28;20237;-75
2022/01/04 10:53:38;;;;;;;22.43;8.93;;;9.20;99.90;;;;;;5017472;28;20213;-75
2022/01/04 10:56:08;;;;;;;23.03;10.00;;;9.20;99.90;;;;;;5003747;28;20232;-75
2022/01/04 10:58:37;;;;;;;21.00;9.43;;;9.30;99.90;;;;;;5000733;28;20222;-75
2022/01/04 11:01:07;;;;;;;24.80;10.13;;;9.30;99.90;;;;;;5007663;28;20863;-75
2022/01/04 11:03:36;;;;;;;24.73;10.57;;;9.30;99.90;;;;;;5016531;28;20563;-75
2022/01/04 11:06:10;;;;;;;22.20;8.50;;;9.40;99.90;;;;;;5007339;28;20283;-75
2022/01/04 11:08:40;;;;;;;25.20;9.53;;;9.40;99.90;;;;;;5006757;28;20227;-75
2022/01/04 11:11:06;;;;;;;25.77;10.80;;;9.40;99.90;;;;;;5007809;28;20274;-75
2022/01/04 11:13:34;;;;;;;21.33;9.83;;;9.50;99.90;;;;;;4997633;28;20206;-75
2022/01/04 11:16:02;;;;;;;21.50;9.23;;;9.50;99.90;;;;;;5010681;28;20225;-75
2022/01/04 11:18:29;;;;;;;23.13;10.73;;;9.50;99.90;;;;;;5016177;28;20260;-75
2022/01/04 11:20:57;;;;;;;24.30;10.40;;;9.50;99.90;;;;;;5006294;28;20220;-75
2022/01/04 11:23:26;;;;;;;27.80;10.50;;;9.50;99.90;;;;;;5005380;28;20213;-75
2022/01/04 11:25:55;;;;;;;23.53;9.53;;;9.50;99.90;;;;;;5006770;28;20232;-75
2022/01/04 11:28:23;;;;;;;26.87;11.27;;;9.50;99.90;;;;;;5002571;28;20488;-75
2022/01/04 11:31:08;;;;;;;23.87;8.93;;;9.50;99.90;;;;;;5008070;28;20354;-75
2022/01/04 11:33:53;;;;;;;24.70;10.47;;;9.50;99.90;;;;;;5003571;28;20733;-75
2022/01/04 11:36:21;;;;;;;23.57;10.30;;;9.60;99.90;;;;;;5004980;28;20718;-75
2022/01/04 11:38:49;;;;;;;25.43;10.90;;;9.60;99.90;;;;;;5006261;28;20224;-75
2022/01/04 11:41:26;;;;;;;27.53;11.20;;;9.60;99.90;;;;;;5012793;28;20547;-75
2022/01/04 11:43:54;;;;;;;25.50;10.63;;;9.70;99.90;;;;;;5007739;28;20320;-75
2022/01/04 11:46:35;;;;;;;25.87;10.90;;;9.70;99.90;;;;;;5000064;28;20198;-74
2022/01/04 11:49:11;;;;;;;26.17;10.70;;;9.70;99.90;;;;;;5006329;28;20265;-74
2022/01/04 11:51:41;;;;;;;21.50;8.37;;;9.70;99.90;;;;;;5002023;28;20283;-74
2022/01/04 11:54:20;;;;;;;22.93;10.43;;;9.70;99.90;;;;;;5005338;28;20276;-74
2022/01/04 11:56:51;;;;;;;23.03;10.50;;;9.70;99.90;;;;;;5001522;28;20234;-74
2022/01/04 11:59:23;;;;;;;29.53;12.13;;;9.60;99.90;;;;;;5005420;28;20226;-75
2022/01/04 12:01:51;;;;;;;27.33;11.53;;;9.60;99.90;;;;;;5003821;28;20295;-73
2022/01/04 12:04:52;;;;;;;33.80;14.23;;;9.60;99.90;;;;;;5005469;28;20239;-73
2022/01/04 12:07:48;;;;;;;26.77;11.30;;;9.60;99.90;;;;;;4924443;29;20228;-74
2022/01/04 12:10:37;;;;;;;28.67;10.97;;;9.60;99.90;;;;;;4925233;29;20225;-74
2022/01/04 12:13:10;;;;;;;26.13;11.77;;;9.60;99.90;;;;;;4980863;28;20254;-75
2022/01/04 12:15:55;;;;;;;23.60;10.73;;;9.60;99.90;;;;;;5002542;28;20741;-73
2022/01/04 12:18:59;;;;;;;27.13;11.90;;;9.60;99.90;;;;;;5002360;28;20245;-74
2022/01/04 12:21:28;;;;;;;26.20;11.97;;;9.70;99.90;;;;;;5001515;28;20213;-73
2022/01/04 12:23:56;;;;;;;31.20;12.13;;;9.70;99.90;;;;;;4989164;28;20206;-71
2022/01/04 12:26:26;;;;;;;34.30;13.47;;;9.70;99.90;;;;;;5004287;28;20281;-71
2022/01/04 12:29:20;;;;;;;27.87;13.00;;;9.70;99.90;;;;;;4999212;28;20261;-72
2022/01/04 12:31:49;;;;;;;27.57;10.93;;;9.70;99.90;;;;;;5000357;28;20289;-73
2022/01/04 12:34:34;;;;;;;25.00;9.97;;;9.70;99.90;;;;;;5000619;28;20219;-72
2022/01/04 12:37:02;;;;;;;31.27;13.93;;;9.60;99.90;;;;;;5002080;28;20241;-71
2022/01/04 12:39:37;;;;;;;23.63;9.40;;;9.60;99.90;;;;;;4985482;28;20205;-72
2022/01/04 12:42:06;;;;;;;28.03;12.97;;;9.60;99.90;;;;;;5002202;28;20229;-72
2022/01/04 12:44:34;;;;;;;25.57;11.63;;;9.60;99.90;;;;;;5002486;28;20263;-71
2022/01/04 12:47:02;;;;;;;26.17;10.90;;;9.60;99.90;;;;;;5006365;28;20230;-72
2022/01/04 12:49:31;;;;;;;21.83;9.57;;;9.60;99.90;;;;;;5008637;28;20213;-74
2022/01/04 12:51:59;;;;;;;28.80;11.10;;;9.60;99.90;;;;;;5001564;28;20213;-74
2022/01/04 12:54:28;;;;;;;31.10;13.23;;;9.50;99.90;;;;;;4999336;28;20224;-74
2022/01/04 12:56:58;;;;;;;28.37;11.20;;;9.50;99.90;;;;;;5002568;28;20225;-74
2022/01/04 12:59:40;;;;;;;26.87;10.07;;;9.50;99.90;;;;;;5004190;28;20211;-74
2022/01/04 13:02:16;;;;;;;29.07;11.73;;;9.50;99.90;;;;;;5002656;28;20675;-74
2022/01/04 13:04:46;;;;;;;31.73;12.90;;;9.50;99.90;;;;;;4998409;28;20300;-74
2022/01/04 13:07:17;;;;;;;31.20;11.73;;;9.40;99.90;;;;;;4998011;28;20269;-74
2022/01/04 13:10:00;;;;;;;25.97;9.60;;;9.40;99.90;;;;;;4993391;28;20217;-74